createdAt,value
2023-02-19T00:00:20.521Z,995.29
2023-02-19T00:01:21.378Z,995.35
2023-02-19T00:02:22.298Z,995.34
2023-02-19T00:03:23.387Z,995.31
2023-02-19T00:04:24.348Z,995.34
2023-02-19T00:05:25.228Z,995.33
2023-02-19T00:06:26.132Z,995.31
2023-02-19T00:07:27.012Z,995.3
2023-02-19T00:08:27.895Z,995.32
2023-02-19T00:09:28.778Z,995.3
2023-02-19T00:10:29.664Z,995.33
2023-02-19T00:11:30.538Z,995.3
2023-02-19T00:12:31.481Z,995.23
2023-02-19T00:13:32.365Z,995.34
2023-02-19T00:14:33.261Z,995.28
2023-02-19T00:15:34.318Z,995.29
2023-02-19T00:16:35.204Z,995.3
2023-02-19T00:17:36.090Z,995.26
2023-02-19T00:18:36.965Z,995.22
2023-02-19T00:19:37.879Z,995.27
2023-02-19T00:20:38.758Z,995.26
2023-02-19T00:21:39.635Z,995.29
2023-02-19T00:22:40.517Z,995.24
2023-02-19T00:23:41.382Z,995.25
2023-02-19T00:24:42.269Z,995.27
2023-02-19T00:25:43.136Z,995.27
2023-02-19T00:26:44.039Z,995.25
2023-02-19T00:27:45.006Z,995.22
2023-02-19T00:28:46.102Z,995.24
2023-02-19T00:29:47.113Z,995.2
2023-02-19T00:30:48.283Z,995.2
2023-02-19T00:31:49.934Z,995.18
2023-02-19T00:32:50.905Z,995.19
2023-02-19T00:33:51.876Z,995.2
2023-02-19T00:34:52.759Z,995.2
2023-02-19T00:35:53.672Z,995.16
2023-02-19T00:36:54.556Z,995.15
2023-02-19T00:37:55.444Z,995.15
2023-02-19T00:38:56.333Z,995.16
2023-02-19T00:39:57.218Z,995.21
2023-02-19T00:40:58.133Z,995.16
2023-02-19T00:41:59.033Z,995.14
2023-02-19T00:42:59.986Z,995.18
2023-02-19T00:44:00.869Z,995.15
2023-02-19T00:45:01.775Z,995.19
2023-02-19T00:46:02.943Z,995.18
2023-02-19T00:47:03.988Z,995.21
2023-02-19T00:48:04.890Z,995.19
2023-02-19T00:49:05.890Z,995.19
2023-02-19T00:50:06.758Z,995.25
2023-02-19T00:51:08.203Z,995.29
2023-02-19T00:52:09.291Z,995.29
2023-02-19T00:53:10.221Z,995.31
2023-02-19T00:54:11.112Z,995.25
2023-02-19T00:55:11.970Z,995.26
2023-02-19T00:56:12.845Z,995.29
2023-02-19T00:57:13.721Z,995.27
2023-02-19T00:58:14.690Z,995.29
2023-02-19T00:59:15.583Z,995.32
2023-02-19T01:00:16.446Z,995.33
2023-02-19T01:01:17.441Z,995.28
2023-02-19T01:02:18.369Z,995.22
2023-02-19T01:03:19.492Z,995.23
2023-02-19T01:04:20.707Z,995.24
2023-02-19T01:05:21.664Z,995.2
2023-02-19T01:06:22.549Z,995.2
2023-02-19T01:07:23.499Z,995.19
2023-02-19T01:08:24.379Z,995.14
2023-02-19T01:09:25.269Z,995.11
2023-02-19T01:10:26.135Z,995.04
2023-02-19T01:11:27.035Z,995.04
2023-02-19T01:12:27.930Z,995.07
2023-02-19T01:13:28.923Z,995
2023-02-19T01:14:29.840Z,995.04
2023-02-19T01:15:30.721Z,995.05
2023-02-19T01:16:31.728Z,994.9
2023-02-19T01:17:32.594Z,994.9
2023-02-19T01:18:33.461Z,994.9
2023-02-19T01:19:34.359Z,994.88
2023-02-19T01:20:35.242Z,994.89
2023-02-19T01:21:36.104Z,994.89
2023-02-19T01:22:36.973Z,994.82
2023-02-19T01:23:37.870Z,994.8
2023-02-19T01:24:38.764Z,994.8
2023-02-19T01:25:39.645Z,994.76
2023-02-19T01:26:40.553Z,994.86
2023-02-19T01:27:41.579Z,994.85
2023-02-19T01:28:42.516Z,994.82
2023-02-19T01:29:43.400Z,994.85
2023-02-19T01:30:44.330Z,994.84
2023-02-19T01:31:45.639Z,994.88
2023-02-19T01:32:46.591Z,994.83
2023-02-19T01:33:47.521Z,994.77
2023-02-19T01:34:48.366Z,994.8
2023-02-19T01:35:49.261Z,994.87
2023-02-19T01:36:50.132Z,994.81
2023-02-19T01:37:51.053Z,994.86
2023-02-19T01:38:51.934Z,994.83
2023-02-19T01:39:52.823Z,994.79
2023-02-19T01:40:53.720Z,994.78
2023-02-19T01:41:54.640Z,994.73
2023-02-19T01:42:55.952Z,994.7
2023-02-19T01:43:56.906Z,994.66
2023-02-19T01:44:57.875Z,994.64
2023-02-19T01:45:58.784Z,994.66
2023-02-19T01:46:59.674Z,994.69
2023-02-19T01:48:00.571Z,994.68
2023-02-19T01:49:01.437Z,994.66
2023-02-19T01:50:02.466Z,994.71
2023-02-19T01:51:03.349Z,994.69
2023-02-19T01:52:04.283Z,994.72
2023-02-19T01:53:05.179Z,994.63
2023-02-19T01:54:06.103Z,994.61
2023-02-19T01:55:06.960Z,994.6
2023-02-19T01:56:07.842Z,994.66
2023-02-19T01:57:08.854Z,994.67
2023-02-19T01:58:09.761Z,994.63
2023-02-19T01:59:10.719Z,994.68
2023-02-19T02:00:11.683Z,994.64
2023-02-19T02:01:14.085Z,994.66
2023-02-19T02:02:15.306Z,994.65
2023-02-19T02:03:16.322Z,994.61
2023-02-19T02:04:17.233Z,994.56
2023-02-19T02:05:18.095Z,994.59
2023-02-19T02:06:18.990Z,994.55
2023-02-19T02:07:19.870Z,994.57
2023-02-19T02:08:20.790Z,994.6
2023-02-19T02:09:21.660Z,994.59
2023-02-19T02:10:22.657Z,994.6
2023-02-19T02:11:23.529Z,994.59
2023-02-19T02:12:24.417Z,994.58
2023-02-19T02:13:25.294Z,994.57
2023-02-19T02:14:26.306Z,994.62
2023-02-19T02:15:27.175Z,994.54
2023-02-19T02:16:28.294Z,994.56
2023-02-19T02:17:29.326Z,994.59
2023-02-19T02:18:30.206Z,994.65
2023-02-19T02:19:31.100Z,994.54
2023-02-19T02:20:31.961Z,994.61
2023-02-19T02:21:32.848Z,994.58
2023-02-19T02:22:33.747Z,994.61
2023-02-19T02:23:34.640Z,994.6
2023-02-19T02:24:35.506Z,994.57
2023-02-19T02:25:36.413Z,994.59
2023-02-19T02:26:37.308Z,994.62
2023-02-19T02:27:38.169Z,994.58
2023-02-19T02:28:39.041Z,994.61
2023-02-19T02:29:40.110Z,994.6
2023-02-19T02:30:41.077Z,994.6
2023-02-19T02:31:42.410Z,994.6
2023-02-19T02:32:43.428Z,994.53
2023-02-19T02:33:44.293Z,994.54
2023-02-19T02:34:45.147Z,994.6
2023-02-19T02:35:46.027Z,994.51
2023-02-19T02:36:46.922Z,994.49
2023-02-19T02:37:47.799Z,994.46
2023-02-19T02:38:48.755Z,994.47
2023-02-19T02:39:49.632Z,994.44
2023-02-19T02:40:50.558Z,994.4
2023-02-19T02:41:51.477Z,994.44
2023-02-19T02:42:52.367Z,994.48
2023-02-19T02:43:53.239Z,994.44
2023-02-19T02:44:54.140Z,994.43
2023-02-19T02:45:55.407Z,994.4
2023-02-19T02:46:56.334Z,994.39
2023-02-19T02:47:57.216Z,994.4
2023-02-19T02:48:58.132Z,994.4
2023-02-19T02:49:59.005Z,994.36
2023-02-19T02:50:59.880Z,994.31
2023-02-19T02:52:00.776Z,994.29
2023-02-19T02:53:01.699Z,994.39
2023-02-19T02:54:02.581Z,994.33
2023-02-19T02:55:03.482Z,994.36
2023-02-19T02:56:04.404Z,994.32
2023-02-19T02:57:05.330Z,994.37
2023-02-19T02:58:06.206Z,994.39
2023-02-19T02:59:07.113Z,994.34
2023-02-19T03:00:08.010Z,994.3
2023-02-19T03:01:10.502Z,994.38
2023-02-19T03:02:12.150Z,994.4
2023-02-19T03:03:13.168Z,994.3
2023-02-19T03:04:14.184Z,994.31
2023-02-19T03:05:15.063Z,994.27
2023-02-19T03:06:15.951Z,994.34
2023-02-19T03:07:16.848Z,994.33
2023-02-19T03:08:17.783Z,994.33
2023-02-19T03:09:18.663Z,994.36
2023-02-19T03:10:19.522Z,994.29
2023-02-19T03:11:20.402Z,994.3
2023-02-19T03:12:21.320Z,994.34
2023-02-19T03:13:22.233Z,994.32
2023-02-19T03:14:23.121Z,994.37
2023-02-19T03:15:23.980Z,994.29
2023-02-19T03:16:25.184Z,994.3
2023-02-19T03:17:26.120Z,994.28
2023-02-19T03:18:27.027Z,994.25
2023-02-19T03:19:27.923Z,994.35
2023-02-19T03:20:28.786Z,994.27
2023-02-19T03:21:29.646Z,994.29
2023-02-19T03:22:30.520Z,994.29
2023-02-19T03:23:31.406Z,994.3
2023-02-19T03:24:32.314Z,994.31
2023-02-19T03:25:33.158Z,994.29
2023-02-19T03:26:34.033Z,994.34
2023-02-19T03:27:34.889Z,994.31
2023-02-19T03:28:35.773Z,994.34
2023-02-19T03:29:36.649Z,994.3
2023-02-19T03:30:37.840Z,994.33
2023-02-19T03:31:39.376Z,994.4
2023-02-19T03:32:40.333Z,994.31
2023-02-19T03:33:41.209Z,994.32
2023-02-19T03:34:42.099Z,994.34
2023-02-19T03:35:42.997Z,994.4
2023-02-19T03:36:43.989Z,994.34
2023-02-19T03:37:45.001Z,994.33
2023-02-19T03:38:45.870Z,994.33
2023-02-19T03:39:46.749Z,994.42
2023-02-19T03:40:47.615Z,994.37
2023-02-19T03:41:48.484Z,994.35
2023-02-19T03:42:49.401Z,994.35
2023-02-19T03:43:50.259Z,994.36
2023-02-19T03:44:51.116Z,994.36
2023-02-19T03:45:52.178Z,994.37
2023-02-19T03:46:53.140Z,994.36
2023-02-19T03:47:53.981Z,994.4
2023-02-19T03:48:54.847Z,994.38
2023-02-19T03:49:55.667Z,994.4
2023-02-19T03:50:56.509Z,994.43
2023-02-19T03:51:57.365Z,994.45
2023-02-19T03:52:58.218Z,994.49
2023-02-19T03:53:59.043Z,994.5
2023-02-19T03:54:59.889Z,994.47
2023-02-19T03:56:00.764Z,994.51
2023-02-19T03:57:01.614Z,994.46
2023-02-19T03:58:02.447Z,994.51
2023-02-19T03:59:03.300Z,994.54
2023-02-19T04:00:04.262Z,994.52
2023-02-19T04:01:05.140Z,994.53
2023-02-19T04:02:06.241Z,994.55
2023-02-19T04:03:07.156Z,994.59
2023-02-19T04:04:08.003Z,994.54
2023-02-19T04:05:08.864Z,994.56
2023-02-19T04:06:09.691Z,994.53
2023-02-19T04:07:10.546Z,994.6
2023-02-19T04:08:11.426Z,994.61
2023-02-19T04:09:12.270Z,994.58
2023-02-19T04:10:13.200Z,994.59
2023-02-19T04:11:14.039Z,994.66
2023-02-19T04:12:14.885Z,994.65
2023-02-19T04:13:15.732Z,994.67
2023-02-19T04:14:16.572Z,994.64
2023-02-19T04:15:17.390Z,994.61
2023-02-19T04:16:18.527Z,994.61
2023-02-19T04:17:19.395Z,994.66
2023-02-19T04:18:20.233Z,994.67
2023-02-19T04:19:21.063Z,994.64
2023-02-19T04:20:21.962Z,994.69
2023-02-19T04:21:22.914Z,994.71
2023-02-19T04:22:23.772Z,994.69
2023-02-19T04:23:24.645Z,994.76
2023-02-19T04:24:25.486Z,994.75
2023-02-19T04:25:26.344Z,994.78
2023-02-19T04:26:27.180Z,994.75
2023-02-19T04:27:28.015Z,994.77
2023-02-19T04:29:29.707Z,994.73
2023-02-19T04:30:31.048Z,994.75
2023-02-19T04:31:32.520Z,994.75
2023-02-19T04:32:33.422Z,994.75
2023-02-19T04:33:34.284Z,994.73
2023-02-19T04:34:35.144Z,994.73
2023-02-19T04:35:35.974Z,994.71
2023-02-19T04:36:36.807Z,994.74
2023-02-19T04:37:37.654Z,994.81
2023-02-19T04:38:38.525Z,994.83
2023-02-19T04:39:39.346Z,994.85
2023-02-19T04:40:40.194Z,994.9
2023-02-19T04:41:41.025Z,994.89
2023-02-19T04:42:41.856Z,994.94
2023-02-19T04:43:42.690Z,994.92
2023-02-19T04:44:43.528Z,994.89
2023-02-19T04:45:44.384Z,994.89
2023-02-19T04:46:45.222Z,994.89
2023-02-19T04:47:46.095Z,994.9
2023-02-19T04:48:46.943Z,994.94
2023-02-19T04:49:47.803Z,994.95
2023-02-19T04:50:48.664Z,994.97
2023-02-19T04:51:49.512Z,995.04
2023-02-19T04:52:50.376Z,995.03
2023-02-19T04:53:51.218Z,995.06
2023-02-19T04:54:52.040Z,995.04
2023-02-19T04:55:52.885Z,995.14
2023-02-19T04:56:53.717Z,995.14
2023-02-19T04:57:54.586Z,995.17
2023-02-19T04:58:55.430Z,995.18
2023-02-19T04:59:56.252Z,995.16
2023-02-19T05:00:57.142Z,995.17
2023-02-19T05:01:57.995Z,995.17
2023-02-19T05:02:58.842Z,995.19
2023-02-19T05:03:59.672Z,995.22
2023-02-19T05:05:00.504Z,995.25
2023-02-19T05:06:01.348Z,995.21
2023-02-19T05:07:02.199Z,995.26
2023-02-19T05:08:03.111Z,995.22
2023-02-19T05:09:03.934Z,995.21
2023-02-19T05:10:04.782Z,995.18
2023-02-19T05:11:05.620Z,995.19
2023-02-19T05:12:06.480Z,995.19
2023-02-19T05:13:07.399Z,995.13
2023-02-19T05:14:08.284Z,995.11
2023-02-19T05:15:09.114Z,995.16
2023-02-19T05:16:10.406Z,995.15
2023-02-19T05:17:11.292Z,995.15
2023-02-19T05:18:12.162Z,995.14
2023-02-19T05:19:13.011Z,995.14
2023-02-19T05:20:13.870Z,995.22
2023-02-19T05:21:14.802Z,995.18
2023-02-19T05:22:15.641Z,995.18
2023-02-19T05:23:16.468Z,995.21
2023-02-19T05:24:17.340Z,995.24
2023-02-19T05:25:18.321Z,995.22
2023-02-19T05:26:19.159Z,995.28
2023-02-19T05:27:19.987Z,995.31
2023-02-19T05:28:20.842Z,995.28
2023-02-19T05:29:21.702Z,995.29
2023-02-19T05:30:22.825Z,995.21
2023-02-19T05:31:24.415Z,995.2
2023-02-19T05:32:25.348Z,995.2
2023-02-19T05:33:26.198Z,995.14
2023-02-19T05:34:27.065Z,995.14
2023-02-19T05:35:27.898Z,995.16
2023-02-19T05:36:28.771Z,995.14
2023-02-19T05:37:29.824Z,995.15
2023-02-19T05:38:30.673Z,995.07
2023-02-19T05:39:31.507Z,995.16
2023-02-19T05:40:32.374Z,995.17
2023-02-19T05:41:33.197Z,995.14
2023-02-19T05:42:34.040Z,995.21
2023-02-19T05:43:34.899Z,995.18
2023-02-19T05:44:35.729Z,995.23
2023-02-19T05:45:36.639Z,995.21
2023-02-19T05:46:37.909Z,995.24
2023-02-19T05:47:38.849Z,995.26
2023-02-19T05:48:39.679Z,995.31
2023-02-19T05:49:40.527Z,995.31
2023-02-19T05:50:41.399Z,995.26
2023-02-19T05:51:42.250Z,995.24
2023-02-19T05:52:43.095Z,995.35
2023-02-19T05:53:43.934Z,995.38
2023-02-19T05:54:44.781Z,995.35
2023-02-19T05:55:45.600Z,995.37
2023-02-19T05:56:46.470Z,995.37
2023-02-19T05:57:47.297Z,995.3
2023-02-19T05:58:48.128Z,995.36
2023-02-19T05:59:48.973Z,995.31
2023-02-19T06:00:49.852Z,995.31
2023-02-19T06:01:50.773Z,995.42
2023-02-19T06:02:51.990Z,995.32
2023-02-19T06:03:57.957Z,995.38
2023-02-19T06:04:55.780Z,995.38
2023-02-19T06:05:56.641Z,995.4
2023-02-19T06:06:57.489Z,995.42
2023-02-19T06:07:58.339Z,995.44
2023-02-19T06:08:59.190Z,995.47
2023-02-19T06:10:00.033Z,995.48
2023-02-19T06:11:00.878Z,995.51
2023-02-19T06:12:01.753Z,995.51
2023-02-19T06:13:02.648Z,995.5
2023-02-19T06:14:03.486Z,995.56
2023-02-19T06:15:04.324Z,995.56
2023-02-19T06:16:05.593Z,995.58
2023-02-19T06:17:06.478Z,995.63
2023-02-19T06:18:07.302Z,995.63
2023-02-19T06:19:08.140Z,995.68
2023-02-19T06:20:08.964Z,995.66
2023-02-19T06:21:10.993Z,995.73
2023-02-19T06:22:12.048Z,995.76
2023-02-19T06:23:12.874Z,995.76
2023-02-19T06:24:13.720Z,995.82
2023-02-19T06:25:14.539Z,995.83
2023-02-19T06:26:15.425Z,995.76
2023-02-19T06:27:16.249Z,995.87
2023-02-19T06:28:17.241Z,995.86
2023-02-19T06:29:18.135Z,995.94
2023-02-19T06:30:19.179Z,995.9
2023-02-19T06:31:20.734Z,996.03
2023-02-19T06:32:22.414Z,996.07
2023-02-19T06:33:23.346Z,996.06
2023-02-19T06:34:24.176Z,996.09
2023-02-19T06:35:25.033Z,996.04
2023-02-19T06:36:25.903Z,996.06
2023-02-19T06:37:26.758Z,996.01
2023-02-19T06:38:27.595Z,996.17
2023-02-19T06:39:28.429Z,996.11
2023-02-19T06:40:29.266Z,996.12
2023-02-19T06:41:30.155Z,996.09
2023-02-19T06:42:31.000Z,996.04
2023-02-19T06:43:31.841Z,996.07
2023-02-19T06:44:32.688Z,996.06
2023-02-19T06:45:33.568Z,996.15
2023-02-19T06:46:34.836Z,996.14
2023-02-19T06:47:35.790Z,996.11
2023-02-19T06:48:36.655Z,996.12
2023-02-19T06:49:37.542Z,996.07
2023-02-19T06:50:38.371Z,996.09
2023-02-19T06:51:39.186Z,996.12
2023-02-19T06:52:40.069Z,996.09
2023-02-19T06:53:40.892Z,996.09
2023-02-19T06:54:41.754Z,996.11
2023-02-19T06:55:42.600Z,996.12
2023-02-19T06:56:47.406Z,996.22
2023-02-19T06:57:45.052Z,996.14
2023-02-19T06:58:45.962Z,996.2
2023-02-19T06:59:46.909Z,996.17
2023-02-19T07:00:48.014Z,996.14
2023-02-19T07:01:48.998Z,996.14
2023-02-19T07:02:49.904Z,996.15
2023-02-19T07:03:51.088Z,996.14
2023-02-19T07:04:52.084Z,996.18
2023-02-19T07:05:52.928Z,996.19
2023-02-19T07:06:53.782Z,996.27
2023-02-19T07:07:54.621Z,996.35
2023-02-19T07:08:55.619Z,996.29
2023-02-19T07:09:56.479Z,996.33
2023-02-19T07:10:57.352Z,996.35
2023-02-19T07:11:58.199Z,996.3
2023-02-19T07:12:59.144Z,996.36
2023-02-19T07:13:59.995Z,996.43
2023-02-19T07:15:00.873Z,996.41
2023-02-19T07:16:02.177Z,996.44
2023-02-19T07:17:03.087Z,996.32
2023-02-19T07:18:03.947Z,996.32
2023-02-19T07:19:04.810Z,996.35
2023-02-19T07:20:05.698Z,996.38
2023-02-19T07:21:06.553Z,996.31
2023-02-19T07:22:07.410Z,996.41
2023-02-19T07:23:08.282Z,996.43
2023-02-19T07:24:09.122Z,996.47
2023-02-19T07:25:09.994Z,996.52
2023-02-19T07:26:10.873Z,996.54
2023-02-19T07:27:11.704Z,996.51
2023-02-19T07:28:12.536Z,996.61
2023-02-19T07:29:13.374Z,996.54
2023-02-19T07:30:14.501Z,996.58
2023-02-19T07:31:16.261Z,996.61
2023-02-19T07:32:17.225Z,996.6
2023-02-19T07:33:18.070Z,996.59
2023-02-19T07:34:18.909Z,996.71
2023-02-19T07:35:19.772Z,996.65
2023-02-19T07:36:20.646Z,996.63
2023-02-19T07:37:21.492Z,996.61
2023-02-19T07:38:22.338Z,996.57
2023-02-19T07:39:23.188Z,996.46
2023-02-19T07:40:24.076Z,996.53
2023-02-19T07:41:24.982Z,996.56
2023-02-19T07:42:25.857Z,996.56
2023-02-19T07:43:26.757Z,996.55
2023-02-19T07:44:27.621Z,996.61
2023-02-19T07:45:28.707Z,996.62
2023-02-19T07:46:29.651Z,996.59
2023-02-19T07:47:30.517Z,996.54
2023-02-19T07:48:31.417Z,996.59
2023-02-19T07:49:32.285Z,996.59
2023-02-19T07:50:33.122Z,996.51
2023-02-19T07:51:34.009Z,996.71
2023-02-19T07:52:34.851Z,996.49
2023-02-19T07:53:35.834Z,996.56
2023-02-19T07:54:36.718Z,996.5
2023-02-19T07:55:37.702Z,996.49
2023-02-19T07:56:38.605Z,996.51
2023-02-19T07:57:39.473Z,996.53
2023-02-19T07:58:40.791Z,996.55
2023-02-19T07:59:41.636Z,996.49
2023-02-19T08:00:44.697Z,996.56
2023-02-19T08:01:45.564Z,996.54
2023-02-19T08:02:46.480Z,996.67
2023-02-19T08:03:51.587Z,996.55
2023-02-19T08:04:49.269Z,996.58
2023-02-19T08:05:50.116Z,996.56
2023-02-19T08:06:50.975Z,996.58
2023-02-19T08:07:51.865Z,996.58
2023-02-19T08:08:52.796Z,996.56
2023-02-19T08:09:53.628Z,996.52
2023-02-19T08:10:54.509Z,996.58
2023-02-19T08:11:55.370Z,996.52
2023-02-19T08:12:56.218Z,996.55
2023-02-19T08:13:57.114Z,996.56
2023-02-19T08:14:58.028Z,996.52
2023-02-19T08:16:29.968Z,996.58
2023-02-19T08:16:59.637Z,996.56
2023-02-19T08:18:00.533Z,996.55
2023-02-19T08:19:01.407Z,996.61
2023-02-19T08:20:02.448Z,996.59
2023-02-19T08:21:03.372Z,996.62
2023-02-19T08:22:04.281Z,996.71
2023-02-19T08:23:05.206Z,996.7
2023-02-19T08:24:06.224Z,996.71
2023-02-19T08:25:07.142Z,996.81
2023-02-19T08:26:08.024Z,996.78
2023-02-19T08:27:08.884Z,996.81
2023-02-19T08:28:09.797Z,996.95
2023-02-19T08:29:10.673Z,997.01
2023-02-19T08:30:11.647Z,997.03
2023-02-19T08:31:14.174Z,997.05
2023-02-19T08:32:15.692Z,997.09
2023-02-19T08:33:16.630Z,997.05
2023-02-19T08:34:17.543Z,997.05
2023-02-19T08:35:18.483Z,997.12
2023-02-19T08:36:19.413Z,997.2
2023-02-19T08:37:20.326Z,997.22
2023-02-19T08:38:21.207Z,997.2
2023-02-19T08:39:22.067Z,997.17
2023-02-19T08:40:22.960Z,997.17
2023-02-19T08:41:23.795Z,997.18
2023-02-19T08:42:24.635Z,997.26
2023-02-19T08:43:25.511Z,997.22
2023-02-19T08:44:26.369Z,997.23
2023-02-19T08:45:27.266Z,997.31
2023-02-19T08:46:28.115Z,997.25
2023-02-19T08:47:28.945Z,997.26
2023-02-19T08:48:29.823Z,997.21
2023-02-19T08:49:30.663Z,997.21
2023-02-19T08:50:31.553Z,997.3
2023-02-19T08:51:32.429Z,997.27
2023-02-19T08:52:33.418Z,997.28
2023-02-19T08:53:34.269Z,997.25
2023-02-19T08:54:37.538Z,997.25
2023-02-19T08:55:35.778Z,997.25
2023-02-19T08:56:36.687Z,997.31
2023-02-19T08:57:37.615Z,997.35
2023-02-19T08:58:38.627Z,997.23
2023-02-19T08:59:39.562Z,997.37
2023-02-19T09:00:40.399Z,997.29
2023-02-19T09:01:41.640Z,997.29
2023-02-19T09:02:42.621Z,997.29
2023-02-19T09:03:43.620Z,997.35
2023-02-19T09:04:44.470Z,997.21
2023-02-19T09:05:45.303Z,997.3
2023-02-19T09:06:46.179Z,997.33
2023-02-19T09:07:47.054Z,997.28
2023-02-19T09:08:48.010Z,997.34
2023-02-19T09:09:48.884Z,997.35
2023-02-19T09:10:49.730Z,997.49
2023-02-19T09:11:50.588Z,997.52
2023-02-19T09:12:51.468Z,997.48
2023-02-19T09:13:52.329Z,997.45
2023-02-19T09:14:53.320Z,997.5
2023-02-19T09:15:54.385Z,997.6
2023-02-19T09:16:55.298Z,997.53
2023-02-19T09:17:56.154Z,997.59
2023-02-19T09:18:57.012Z,997.62
2023-02-19T09:19:58.822Z,997.64
2023-02-19T09:20:59.705Z,997.67
2023-02-19T09:22:00.556Z,997.65
2023-02-19T09:23:01.429Z,997.69
2023-02-19T09:24:02.268Z,997.7
2023-02-19T09:25:03.159Z,997.72
2023-02-19T09:26:04.039Z,997.69
2023-02-19T09:27:04.958Z,997.63
2023-02-19T09:28:05.832Z,997.64
2023-02-19T09:29:06.710Z,997.67
2023-02-19T09:30:07.844Z,997.69
2023-02-19T09:31:10.431Z,997.74
2023-02-19T09:32:11.923Z,997.7
2023-02-19T09:33:12.935Z,997.77
2023-02-19T09:34:13.778Z,997.7
2023-02-19T09:35:14.713Z,997.71
2023-02-19T09:36:15.602Z,997.7
2023-02-19T09:37:16.495Z,997.81
2023-02-19T09:38:17.386Z,997.75
2023-02-19T09:39:18.292Z,997.72
2023-02-19T09:40:19.235Z,997.8
2023-02-19T09:41:20.145Z,997.73
2023-02-19T09:42:21.098Z,997.68
2023-02-19T09:43:22.089Z,997.62
2023-02-19T09:44:23.017Z,997.73
2023-02-19T09:45:23.962Z,997.61
2023-02-19T09:46:25.186Z,997.65
2023-02-19T09:47:26.247Z,997.67
2023-02-19T09:48:27.131Z,997.71
2023-02-19T09:49:28.005Z,997.72
2023-02-19T09:50:28.917Z,997.73
2023-02-19T09:51:29.798Z,997.75
2023-02-19T09:52:30.668Z,997.82
2023-02-19T09:53:31.545Z,997.79
2023-02-19T09:54:32.452Z,997.78
2023-02-19T09:55:33.320Z,997.84
2023-02-19T09:56:34.204Z,997.85
2023-02-19T09:57:35.088Z,997.87
2023-02-19T09:58:35.982Z,997.82
2023-02-19T09:59:36.899Z,997.86
2023-02-19T10:00:37.958Z,997.85
2023-02-19T10:01:39.252Z,997.93
2023-02-19T10:02:40.281Z,997.87
2023-02-19T10:03:41.137Z,997.88
2023-02-19T10:04:42.050Z,997.81
2023-02-19T10:05:45.957Z,997.83
2023-02-19T10:06:43.647Z,997.74
2023-02-19T10:07:44.522Z,997.73
2023-02-19T10:08:45.434Z,997.75
2023-02-19T10:09:46.308Z,997.68
2023-02-19T10:10:47.199Z,997.73
2023-02-19T10:11:48.092Z,997.65
2023-02-19T10:12:48.964Z,997.63
2023-02-19T10:13:49.888Z,997.65
2023-02-19T10:14:50.793Z,997.72
2023-02-19T10:15:52.009Z,997.65
2023-02-19T10:16:52.992Z,997.68
2023-02-19T10:17:53.872Z,997.7
2023-02-19T10:18:54.876Z,997.67
2023-02-19T10:19:56.082Z,997.65
2023-02-19T10:20:56.982Z,997.72
2023-02-19T10:21:57.872Z,997.7
2023-02-19T10:22:58.759Z,997.61
2023-02-19T10:23:59.612Z,997.71
2023-02-19T10:25:00.509Z,997.6
2023-02-19T10:26:01.394Z,997.6
2023-02-19T10:27:02.343Z,997.67
2023-02-19T10:28:03.180Z,997.72
2023-02-19T10:29:04.039Z,997.65
2023-02-19T10:30:05.201Z,997.77
2023-02-19T10:31:06.444Z,997.83
2023-02-19T10:32:07.505Z,997.75
2023-02-19T10:33:08.396Z,997.75
2023-02-19T10:34:09.226Z,997.78
2023-02-19T10:35:10.068Z,997.8
2023-02-19T10:36:10.903Z,997.8
2023-02-19T10:37:11.744Z,997.92
2023-02-19T10:38:12.598Z,997.89
2023-02-19T10:39:13.457Z,997.85
2023-02-19T10:40:14.297Z,997.83
2023-02-19T10:41:15.168Z,997.9
2023-02-19T10:42:16.001Z,997.87
2023-02-19T10:43:16.847Z,997.93
2023-02-19T10:44:17.710Z,997.98
2023-02-19T10:45:18.552Z,997.93
2023-02-19T10:46:19.653Z,997.88
2023-02-19T10:47:20.600Z,997.98
2023-02-19T10:48:21.463Z,997.98
2023-02-19T10:49:22.322Z,998.16
2023-02-19T10:50:23.502Z,998
2023-02-19T10:51:24.360Z,998.04
2023-02-19T10:52:25.248Z,998.03
2023-02-19T10:53:26.130Z,997.98
2023-02-19T10:54:26.998Z,998.07
2023-02-19T10:55:27.849Z,998.07
2023-02-19T10:56:29.007Z,998.02
2023-02-19T10:57:29.909Z,998.11
2023-02-19T10:58:30.812Z,998.11
2023-02-19T10:59:31.690Z,998.16
2023-02-19T11:00:32.594Z,998.01
2023-02-19T11:01:33.687Z,997.97
2023-02-19T11:02:34.558Z,998.09
2023-02-19T11:03:35.409Z,998.05
2023-02-19T11:04:36.464Z,998.08
2023-02-19T11:05:37.319Z,998.14
2023-02-19T11:06:38.184Z,998.08
2023-02-19T11:07:39.043Z,998.11
2023-02-19T11:08:39.880Z,998.05
2023-02-19T11:09:40.724Z,998.03
2023-02-19T11:10:41.562Z,997.98
2023-02-19T11:11:42.395Z,998.05
2023-02-19T11:12:43.234Z,998.01
2023-02-19T11:13:44.101Z,998.06
2023-02-19T11:14:44.953Z,998.06
2023-02-19T11:15:45.786Z,997.96
2023-02-19T11:16:46.607Z,997.9
2023-02-19T11:17:47.490Z,997.85
2023-02-19T11:18:48.340Z,997.95
2023-02-19T11:19:49.200Z,997.85
2023-02-19T11:20:50.050Z,997.93
2023-02-19T11:21:50.884Z,997.93
2023-02-19T11:22:51.739Z,997.92
2023-02-19T11:23:52.606Z,997.93
2023-02-19T11:24:59.696Z,997.94
2023-02-19T11:25:54.294Z,997.93
2023-02-19T11:26:55.141Z,997.97
2023-02-19T11:27:56.008Z,997.93
2023-02-19T11:28:57.577Z,997.98
2023-02-19T11:29:58.471Z,997.99
2023-02-19T11:30:59.629Z,997.98
2023-02-19T11:32:00.979Z,998
2023-02-19T11:33:01.916Z,998.04
2023-02-19T11:34:02.811Z,998.03
2023-02-19T11:35:03.678Z,997.96
2023-02-19T11:36:04.503Z,998.04
2023-02-19T11:37:05.391Z,998.11
2023-02-19T11:38:06.533Z,997.96
2023-02-19T11:39:07.394Z,997.95
2023-02-19T11:40:08.252Z,997.98
2023-02-19T11:41:10.593Z,998.03
2023-02-19T11:42:11.926Z,997.99
2023-02-19T11:43:12.755Z,998.02
2023-02-19T11:44:13.607Z,998.07
2023-02-19T11:45:14.442Z,998.06
2023-02-19T11:46:15.339Z,997.98
2023-02-19T11:47:16.195Z,997.94
2023-02-19T11:48:17.015Z,997.93
2023-02-19T11:49:17.853Z,997.95
2023-02-19T11:50:18.682Z,997.97
2023-02-19T11:51:19.527Z,997.9
2023-02-19T11:52:20.399Z,998.01
2023-02-19T11:53:21.247Z,998.04
2023-02-19T11:54:22.212Z,998
2023-02-19T11:55:23.156Z,998.05
2023-02-19T11:56:24.020Z,998.07
2023-02-19T11:57:24.856Z,998.16
2023-02-19T11:58:25.696Z,998.11
2023-02-19T11:59:26.541Z,998.11
2023-02-19T12:00:27.387Z,998.09
2023-02-19T12:01:28.227Z,998.18
2023-02-19T12:02:29.229Z,998.23
2023-02-19T12:03:30.181Z,998.22
2023-02-19T12:04:31.023Z,998.12
2023-02-19T12:05:31.880Z,998.15
2023-02-19T12:06:32.728Z,997.95
2023-02-19T12:07:33.589Z,998.27
2023-02-19T12:08:34.471Z,998.24
2023-02-19T12:09:35.365Z,998.26
2023-02-19T12:10:36.184Z,998.24
2023-02-19T12:11:37.016Z,998.31
2023-02-19T12:12:38.368Z,998.25
2023-02-19T12:13:39.225Z,998.27
2023-02-19T12:14:40.113Z,998.2
2023-02-19T12:15:41.002Z,998.3
2023-02-19T12:16:41.938Z,998.16
2023-02-19T12:17:42.861Z,998.15
2023-02-19T12:18:43.682Z,998.19
2023-02-19T12:19:44.558Z,998.18
2023-02-19T12:20:45.426Z,998.18
2023-02-19T12:21:46.281Z,998.11
2023-02-19T12:22:47.409Z,998.11
2023-02-19T12:23:48.243Z,998.11
2023-02-19T12:24:49.097Z,998.11
2023-02-19T12:25:49.993Z,998.15
2023-02-19T12:26:50.811Z,998.04
2023-02-19T12:27:51.623Z,998.06
2023-02-19T12:28:52.476Z,998.03
2023-02-19T12:29:53.358Z,998.09
2023-02-19T12:30:54.314Z,997.95
2023-02-19T12:31:55.319Z,997.92
2023-02-19T12:32:56.242Z,997.97
2023-02-19T12:33:57.090Z,997.92
2023-02-19T12:34:57.948Z,997.97
2023-02-19T12:35:58.795Z,997.95
2023-02-19T12:36:59.677Z,998
2023-02-19T12:38:00.563Z,998.03
2023-02-19T12:39:01.390Z,997.93
2023-02-19T12:40:02.264Z,997.92
2023-02-19T12:41:03.146Z,998.04
2023-02-19T12:42:03.986Z,998.05
2023-02-19T12:43:04.830Z,998.1
2023-02-19T12:44:05.672Z,998.15